sensor_id;sensor_type;location;lat;lon;timestamp;P1;durP1;ratioP1;P2;durP2;ratioP2
5754;SDS011;2902;42.130;24.732;2024-01-16T00:02:00;68.10;;;36.60;;
5754;SDS011;2902;42.130;24.732;2024-01-16T00:04:29;74.13;;;38.03;;
5754;SDS011;2902;42.130;24.732;2024-01-16T00:06:56;75.70;;;38.77;;
5754;SDS011;2902;42.130;24.732;2024-01-16T00:09:23;75.80;;;39.97;;
5754;SDS011;2902;42.130;24.732;2024-01-16T00:11:49;70.50;;;38.27;;
5754;SDS011;2902;42.130;24.732;2024-01-16T00:14:16;74.53;;;39.83;;
5754;SDS011;2902;42.130;24.732;2024-01-16T00:16:43;79.07;;;39.60;;
5754;SDS011;2902;42.130;24.732;2024-01-16T00:19:11;70.07;;;37.20;;
5754;SDS011;2902;42.130;24.732;2024-01-16T00:21:39;66.40;;;37.10;;
5754;SDS011;2902;42.130;24.732;2024-01-16T00:24:06;68.43;;;35.57;;
5754;SDS011;2902;42.130;24.732;2024-01-16T00:26:33;73.47;;;36.73;;
5754;SDS011;2902;42.130;24.732;2024-01-16T00:29:00;68.23;;;35.73;;
5754;SDS011;2902;42.130;24.732;2024-01-16T00:31:27;67.60;;;37.17;;
5754;SDS011;2902;42.130;24.732;2024-01-16T00:33:53;75.23;;;37.30;;
5754;SDS011;2902;42.130;24.732;2024-01-16T00:36:20;73.20;;;36.97;;
5754;SDS011;2902;42.130;24.732;2024-01-16T00:38:48;71.87;;;37.57;;
5754;SDS011;2902;42.130;24.732;2024-01-16T00:41:15;73.70;;;37.70;;
5754;SDS011;2902;42.130;24.732;2024-01-16T00:43:42;68.63;;;37.17;;
5754;SDS011;2902;42.130;24.732;2024-01-16T00:46:09;71.20;;;36.23;;
5754;SDS011;2902;42.130;24.732;2024-01-16T00:48:36;74.77;;;38.57;;
5754;SDS011;2902;42.130;24.732;2024-01-16T00:51:03;68.13;;;36.47;;
5754;SDS011;2902;42.130;24.732;2024-01-16T00:53:30;68.03;;;35.93;;
5754;SDS011;2902;42.130;24.732;2024-01-16T00:55:58;65.93;;;36.93;;
5754;SDS011;2902;42.130;24.732;2024-01-16T00:58:25;70.20;;;38.23;;
5754;SDS011;2902;42.130;24.732;2024-01-16T01:00:52;70.83;;;38.40;;
5754;SDS011;2902;42.130;24.732;2024-01-16T01:03:18;65.50;;;36.03;;
5754;SDS011;2902;42.130;24.732;2024-01-16T01:05:45;76.63;;;38.13;;
5754;SDS011;2902;42.130;24.732;2024-01-16T01:08:12;63.83;;;36.30;;
5754;SDS011;2902;42.130;24.732;2024-01-16T01:10:39;69.43;;;36.23;;
5754;SDS011;2902;42.130;24.732;2024-01-16T01:13:07;71.43;;;37.37;;
5754;SDS011;2902;42.130;24.732;2024-01-16T01:15:33;67.37;;;37.70;;
5754;SDS011;2902;42.130;24.732;2024-01-16T01:18:00;74.60;;;36.67;;
5754;SDS011;2902;42.130;24.732;2024-01-16T01:20:27;70.57;;;36.87;;
5754;SDS011;2902;42.130;24.732;2024-01-16T01:22:54;69.77;;;36.80;;
5754;SDS011;2902;42.130;24.732;2024-01-16T01:25:20;73.20;;;38.20;;
5754;SDS011;2902;42.130;24.732;2024-01-16T01:27:47;72.70;;;37.10;;
5754;SDS011;2902;42.130;24.732;2024-01-16T01:30:16;84.90;;;39.00;;
5754;SDS011;2902;42.130;24.732;2024-01-16T01:32:43;106.20;;;38.17;;
5754;SDS011;2902;42.130;24.732;2024-01-16T01:35:10;83.83;;;38.17;;
5754;SDS011;2902;42.130;24.732;2024-01-16T01:37:36;90.80;;;38.20;;
5754;SDS011;2902;42.130;24.732;2024-01-16T01:40:04;91.33;;;41.07;;
5754;SDS011;2902;42.130;24.732;2024-01-16T01:42:31;93.93;;;38.63;;
5754;SDS011;2902;42.130;24.732;2024-01-16T01:44:58;99.87;;;39.10;;
5754;SDS011;2902;42.130;24.732;2024-01-16T01:47:26;107.33;;;40.40;;
5754;SDS011;2902;42.130;24.732;2024-01-16T01:49:53;102.03;;;39.90;;
5754;SDS011;2902;42.130;24.732;2024-01-16T01:52:20;101.43;;;40.37;;
5754;SDS011;2902;42.130;24.732;2024-01-16T01:54:48;97.37;;;42.13;;
5754;SDS011;2902;42.130;24.732;2024-01-16T01:57:15;86.50;;;40.50;;
5754;SDS011;2902;42.130;24.732;2024-01-16T01:59:42;85.27;;;40.03;;
5754;SDS011;2902;42.130;24.732;2024-01-16T02:02:08;85.63;;;41.60;;
5754;SDS011;2902;42.130;24.732;2024-01-16T02:04:38;84.90;;;41.37;;
5754;SDS011;2902;42.130;24.732;2024-01-16T02:07:07;88.80;;;40.43;;
5754;SDS011;2902;42.130;24.732;2024-01-16T02:09:34;97.60;;;41.23;;
5754;SDS011;2902;42.130;24.732;2024-01-16T02:12:01;90.10;;;39.13;;
5754;SDS011;2902;42.130;24.732;2024-01-16T02:14:27;82.77;;;39.10;;
5754;SDS011;2902;42.130;24.732;2024-01-16T02:16:54;80.17;;;40.90;;
5754;SDS011;2902;42.130;24.732;2024-01-16T02:19:21;82.53;;;39.63;;
5754;SDS011;2902;42.130;24.732;2024-01-16T02:21:51;82.77;;;38.50;;
5754;SDS011;2902;42.130;24.732;2024-01-16T02:24:22;78.53;;;39.23;;
5754;SDS011;2902;42.130;24.732;2024-01-16T02:26:49;75.73;;;38.03;;
5754;SDS011;2902;42.130;24.732;2024-01-16T02:29:16;74.77;;;37.17;;
5754;SDS011;2902;42.130;24.732;2024-01-16T02:31:42;67.53;;;38.23;;
5754;SDS011;2902;42.130;24.732;2024-01-16T02:34:09;71.73;;;38.57;;
5754;SDS011;2902;42.130;24.732;2024-01-16T02:36:36;69.93;;;38.63;;
5754;SDS011;2902;42.130;24.732;2024-01-16T02:39:03;78.07;;;40.67;;
5754;SDS011;2902;42.130;24.732;2024-01-16T02:41:32;76.93;;;40.10;;
5754;SDS011;2902;42.130;24.732;2024-01-16T02:43:59;71.93;;;37.37;;
5754;SDS011;2902;42.130;24.732;2024-01-16T02:46:26;65.53;;;36.73;;
5754;SDS011;2902;42.130;24.732;2024-01-16T02:48:53;64.97;;;36.70;;
5754;SDS011;2902;42.130;24.732;2024-01-16T02:51:20;69.47;;;37.83;;
5754;SDS011;2902;42.130;24.732;2024-01-16T02:53:46;74.73;;;38.67;;
5754;SDS011;2902;42.130;24.732;2024-01-16T02:56:13;66.37;;;37.83;;
5754;SDS011;2902;42.130;24.732;2024-01-16T02:58:41;73.37;;;40.63;;
5754;SDS011;2902;42.130;24.732;2024-01-16T03:01:08;72.83;;;40.13;;
5754;SDS011;2902;42.130;24.732;2024-01-16T03:03:35;77.57;;;38.47;;
5754;SDS011;2902;42.130;24.732;2024-01-16T03:06:01;68.17;;;36.43;;
5754;SDS011;2902;42.130;24.732;2024-01-16T03:08:28;73.37;;;38.47;;
5754;SDS011;2902;42.130;24.732;2024-01-16T03:10:55;64.53;;;36.10;;
5754;SDS011;2902;42.130;24.732;2024-01-16T03:13:22;68.50;;;37.17;;
5754;SDS011;2902;42.130;24.732;2024-01-16T03:15:50;63.57;;;36.03;;
5754;SDS011;2902;42.130;24.732;2024-01-16T03:18:16;61.57;;;34.90;;
5754;SDS011;2902;42.130;24.732;2024-01-16T03:20:43;68.27;;;34.83;;
5754;SDS011;2902;42.130;24.732;2024-01-16T03:23:10;65.27;;;35.87;;
5754;SDS011;2902;42.130;24.732;2024-01-16T03:25:36;62.43;;;37.20;;
5754;SDS011;2902;42.130;24.732;2024-01-16T03:28:04;71.47;;;37.23;;
5754;SDS011;2902;42.130;24.732;2024-01-16T03:30:33;67.47;;;36.63;;
5754;SDS011;2902;42.130;24.732;2024-01-16T03:33:01;70.33;;;35.47;;
5754;SDS011;2902;42.130;24.732;2024-01-16T03:35:28;62.80;;;35.57;;
5754;SDS011;2902;42.130;24.732;2024-01-16T03:37:55;63.90;;;33.53;;
5754;SDS011;2902;42.130;24.732;2024-01-16T03:40:21;73.20;;;36.07;;
5754;SDS011;2902;42.130;24.732;2024-01-16T03:42:48;59.43;;;36.37;;
5754;SDS011;2902;42.130;24.732;2024-01-16T03:45:15;62.47;;;34.60;;
5754;SDS011;2902;42.130;24.732;2024-01-16T03:47:41;67.60;;;34.40;;
5754;SDS011;2902;42.130;24.732;2024-01-16T03:50:10;59.30;;;33.53;;
5754;SDS011;2902;42.130;24.732;2024-01-16T03:52:37;59.73;;;33.10;;
5754;SDS011;2902;42.130;24.732;2024-01-16T03:55:03;65.83;;;33.97;;
5754;SDS011;2902;42.130;24.732;2024-01-16T03:57:30;60.90;;;34.27;;
5754;SDS011;2902;42.130;24.732;2024-01-16T03:59:57;68.17;;;36.53;;
5754;SDS011;2902;42.130;24.732;2024-01-16T04:02:24;65.53;;;34.27;;
5754;SDS011;2902;42.130;24.732;2024-01-16T04:04:51;62.50;;;33.07;;
5754;SDS011;2902;42.130;24.732;2024-01-16T04:07:19;63.37;;;32.03;;
5754;SDS011;2902;42.130;24.732;2024-01-16T04:09:48;60.27;;;35.67;;
5754;SDS011;2902;42.130;24.732;2024-01-16T04:12:15;54.83;;;32.40;;
5754;SDS011;2902;42.130;24.732;2024-01-16T04:14:42;57.97;;;32.07;;
5754;SDS011;2902;42.130;24.732;2024-01-16T04:17:08;64.13;;;34.83;;
5754;SDS011;2902;42.130;24.732;2024-01-16T04:19:35;56.33;;;33.27;;
5754;SDS011;2902;42.130;24.732;2024-01-16T04:22:02;59.30;;;34.77;;
5754;SDS011;2902;42.130;24.732;2024-01-16T04:24:31;64.57;;;34.10;;
5754;SDS011;2902;42.130;24.732;2024-01-16T04:26:58;62.87;;;33.70;;
5754;SDS011;2902;42.130;24.732;2024-01-16T04:29:24;57.17;;;32.37;;
5754;SDS011;2902;42.130;24.732;2024-01-16T04:31:51;68.23;;;33.27;;
5754;SDS011;2902;42.130;24.732;2024-01-16T04:34:18;56.50;;;32.47;;
5754;SDS011;2902;42.130;24.732;2024-01-16T04:36:45;68.60;;;35.63;;
5754;SDS011;2902;42.130;24.732;2024-01-16T04:39:11;64.60;;;34.07;;
5754;SDS011;2902;42.130;24.732;2024-01-16T04:41:40;60.93;;;32.93;;
5754;SDS011;2902;42.130;24.732;2024-01-16T04:44:07;62.43;;;33.43;;
5754;SDS011;2902;42.130;24.732;2024-01-16T04:46:34;71.97;;;35.73;;
5754;SDS011;2902;42.130;24.732;2024-01-16T04:49:01;69.10;;;34.63;;
5754;SDS011;2902;42.130;24.732;2024-01-16T04:51:27;63.90;;;33.70;;
5754;SDS011;2902;42.130;24.732;2024-01-16T04:53:54;59.83;;;33.70;;
5754;SDS011;2902;42.130;24.732;2024-01-16T04:56:21;65.13;;;34.07;;
5754;SDS011;2902;42.130;24.732;2024-01-16T04:58:49;69.47;;;35.27;;
5754;SDS011;2902;42.130;24.732;2024-01-16T05:01:17;67.37;;;36.60;;
5754;SDS011;2902;42.130;24.732;2024-01-16T05:03:44;62.77;;;35.80;;
5754;SDS011;2902;42.130;24.732;2024-01-16T05:06:13;75.23;;;34.47;;
5754;SDS011;2902;42.130;24.732;2024-01-16T05:08:41;54.57;;;33.67;;
5754;SDS011;2902;42.130;24.732;2024-01-16T05:11:08;75.13;;;36.57;;
5754;SDS011;2902;42.130;24.732;2024-01-16T05:13:35;66.10;;;35.27;;
5754;SDS011;2902;42.130;24.732;2024-01-16T05:16:03;65.60;;;34.20;;
5754;SDS011;2902;42.130;24.732;2024-01-16T05:18:30;62.00;;;34.93;;
5754;SDS011;2902;42.130;24.732;2024-01-16T05:20:57;61.23;;;35.97;;
5754;SDS011;2902;42.130;24.732;2024-01-16T05:23:24;69.47;;;36.27;;
5754;SDS011;2902;42.130;24.732;2024-01-16T05:25:51;66.07;;;35.20;;
5754;SDS011;2902;42.130;24.732;2024-01-16T05:28:17;64.20;;;34.53;;
5754;SDS011;2902;42.130;24.732;2024-01-16T05:30:44;61.90;;;34.57;;
5754;SDS011;2902;42.130;24.732;2024-01-16T05:33:12;73.17;;;36.40;;
5754;SDS011;2902;42.130;24.732;2024-01-16T05:35:39;71.63;;;34.93;;
5754;SDS011;2902;42.130;24.732;2024-01-16T05:38:06;67.90;;;34.30;;
5754;SDS011;2902;42.130;24.732;2024-01-16T05:40:32;67.67;;;34.77;;
5754;SDS011;2902;42.130;24.732;2024-01-16T05:42:59;67.10;;;35.40;;
5754;SDS011;2902;42.130;24.732;2024-01-16T05:45:27;66.40;;;33.60;;
5754;SDS011;2902;42.130;24.732;2024-01-16T05:47:53;52.03;;;28.87;;
5754;SDS011;2902;42.130;24.732;2024-01-16T05:50:21;24.40;;;13.40;;
5754;SDS011;2902;42.130;24.732;2024-01-16T05:52:48;57.77;;;30.97;;
5754;SDS011;2902;42.130;24.732;2024-01-16T05:55:15;59.30;;;29.03;;
5754;SDS011;2902;42.130;24.732;2024-01-16T05:57:42;54.23;;;30.50;;
5754;SDS011;2902;42.130;24.732;2024-01-16T06:00:09;54.57;;;27.80;;
5754;SDS011;2902;42.130;24.732;2024-01-16T06:02:36;52.17;;;26.33;;
5754;SDS011;2902;42.130;24.732;2024-01-16T06:05:03;40.63;;;24.50;;
5754;SDS011;2902;42.130;24.732;2024-01-16T06:07:32;45.13;;;24.37;;
5754;SDS011;2902;42.130;24.732;2024-01-16T06:09:59;43.63;;;26.33;;
5754;SDS011;2902;42.130;24.732;2024-01-16T06:12:25;64.23;;;26.17;;
5754;SDS011;2902;42.130;24.732;2024-01-16T06:14:52;37.27;;;23.47;;
5754;SDS011;2902;42.130;24.732;2024-01-16T06:17:19;44.57;;;25.07;;
5754;SDS011;2902;42.130;24.732;2024-01-16T06:19:45;43.97;;;22.03;;
5754;SDS011;2902;42.130;24.732;2024-01-16T06:22:13;32.13;;;20.90;;
5754;SDS011;2902;42.130;24.732;2024-01-16T06:24:41;30.27;;;15.60;;
5754;SDS011;2902;42.130;24.732;2024-01-16T06:27:07;17.63;;;13.33;;
5754;SDS011;2902;42.130;24.732;2024-01-16T06:29:34;22.47;;;13.13;;
5754;SDS011;2902;42.130;24.732;2024-01-16T06:32:01;13.03;;;10.43;;
5754;SDS011;2902;42.130;24.732;2024-01-16T06:34:28;14.87;;;8.73;;
5754;SDS011;2902;42.130;24.732;2024-01-16T06:36:54;16.83;;;9.17;;
5754;SDS011;2902;42.130;24.732;2024-01-16T06:39:21;9.57;;;8.60;;
5754;SDS011;2902;42.130;24.732;2024-01-16T06:41:49;23.77;;;13.53;;
5754;SDS011;2902;42.130;24.732;2024-01-16T06:44:16;8.47;;;7.13;;
5754;SDS011;2902;42.130;24.732;2024-01-16T06:46:43;9.43;;;7.37;;
5754;SDS011;2902;42.130;24.732;2024-01-16T06:49:09;7.57;;;6.80;;
5754;SDS011;2902;42.130;24.732;2024-01-16T06:51:36;7.53;;;6.80;;
5754;SDS011;2902;42.130;24.732;2024-01-16T06:54:03;6.37;;;5.77;;
5754;SDS011;2902;42.130;24.732;2024-01-16T06:56:29;8.77;;;6.77;;
5754;SDS011;2902;42.130;24.732;2024-01-16T06:58:58;7.73;;;6.87;;
5754;SDS011;2902;42.130;24.732;2024-01-16T07:01:26;7.37;;;6.67;;
5754;SDS011;2902;42.130;24.732;2024-01-16T07:03:53;7.10;;;6.40;;
5754;SDS011;2902;42.130;24.732;2024-01-16T07:06:19;6.10;;;5.60;;
5754;SDS011;2902;42.130;24.732;2024-01-16T07:08:46;9.00;;;6.00;;
5754;SDS011;2902;42.130;24.732;2024-01-16T07:11:13;7.53;;;6.73;;
5754;SDS011;2902;42.130;24.732;2024-01-16T07:13:40;17.27;;;6.77;;
5754;SDS011;2902;42.130;24.732;2024-01-16T07:16:10;33.67;;;17.03;;
5754;SDS011;2902;42.130;24.732;2024-01-16T07:18:37;7.80;;;7.13;;
5754;SDS011;2902;42.130;24.732;2024-01-16T07:21:04;12.60;;;8.93;;
5754;SDS011;2902;42.130;24.732;2024-01-16T07:23:31;13.30;;;8.30;;
5754;SDS011;2902;42.130;24.732;2024-01-16T07:25:57;8.53;;;7.73;;
5754;SDS011;2902;42.130;24.732;2024-01-16T07:28:24;8.17;;;7.30;;
5754;SDS011;2902;42.130;24.732;2024-01-16T07:30:52;10.03;;;8.40;;
5754;SDS011;2902;42.130;24.732;2024-01-16T07:33:21;9.97;;;7.37;;
5754;SDS011;2902;42.130;24.732;2024-01-16T07:35:48;11.00;;;7.77;;
5754;SDS011;2902;42.130;24.732;2024-01-16T07:38:14;8.00;;;6.97;;
5754;SDS011;2902;42.130;24.732;2024-01-16T07:40:41;8.67;;;7.23;;
5754;SDS011;2902;42.130;24.732;2024-01-16T07:43:08;17.27;;;8.40;;
5754;SDS011;2902;42.130;24.732;2024-01-16T07:45:34;7.63;;;5.23;;
5754;SDS011;2902;42.130;24.732;2024-01-16T07:48:01;40.50;;;7.07;;
5754;SDS011;2902;42.130;24.732;2024-01-16T07:50:30;5.83;;;5.27;;
5754;SDS011;2902;42.130;24.732;2024-01-16T07:52:56;7.00;;;5.53;;
5754;SDS011;2902;42.130;24.732;2024-01-16T07:55:23;6.13;;;5.60;;
5754;SDS011;2902;42.130;24.732;2024-01-16T07:57:50;9.47;;;6.17;;
5754;SDS011;2902;42.130;24.732;2024-01-16T08:00:16;10.20;;;5.43;;
5754;SDS011;2902;42.130;24.732;2024-01-16T08:02:44;7.13;;;6.53;;
5754;SDS011;2902;42.130;24.732;2024-01-16T08:05:10;5.33;;;4.93;;
5754;SDS011;2902;42.130;24.732;2024-01-16T08:07:39;7.33;;;4.67;;
5754;SDS011;2902;42.130;24.732;2024-01-16T08:10:08;12.50;;;7.80;;
5754;SDS011;2902;42.130;24.732;2024-01-16T08:12:36;6.13;;;5.73;;
5754;SDS011;2902;42.130;24.732;2024-01-16T08:15:03;5.50;;;5.00;;
5754;SDS011;2902;42.130;24.732;2024-01-16T08:17:32;5.80;;;4.63;;
5754;SDS011;2902;42.130;24.732;2024-01-16T08:19:59;6.63;;;4.20;;
5754;SDS011;2902;42.130;24.732;2024-01-16T08:22:26;5.80;;;5.30;;
5754;SDS011;2902;42.130;24.732;2024-01-16T08:24:54;4.73;;;4.37;;
5754;SDS011;2902;42.130;24.732;2024-01-16T08:27:21;15.07;;;5.03;;
5754;SDS011;2902;42.130;24.732;2024-01-16T08:29:47;4.40;;;4.03;;
5754;SDS011;2902;42.130;24.732;2024-01-16T08:32:15;7.50;;;4.90;;
5754;SDS011;2902;42.130;24.732;2024-01-16T08:34:42;5.70;;;4.60;;
5754;SDS011;2902;42.130;24.732;2024-01-16T08:37:08;100.83;;;9.47;;
5754;SDS011;2902;42.130;24.732;2024-01-16T08:39:35;7.73;;;4.03;;
5754;SDS011;2902;42.130;24.732;2024-01-16T08:42:03;13.67;;;4.17;;
5754;SDS011;2902;42.130;24.732;2024-01-16T08:44:31;5.27;;;3.60;;
5754;SDS011;2902;42.130;24.732;2024-01-16T08:46:57;4.17;;;3.70;;
5754;SDS011;2902;42.130;24.732;2024-01-16T08:49:25;16.37;;;5.83;;
5754;SDS011;2902;42.130;24.732;2024-01-16T08:51:52;21.93;;;5.43;;
5754;SDS011;2902;42.130;24.732;2024-01-16T08:54:19;11.13;;;4.30;;
5754;SDS011;2902;42.130;24.732;2024-01-16T08:56:48;5.33;;;4.83;;
5754;SDS011;2902;42.130;24.732;2024-01-16T08:59:16;4.20;;;3.90;;
5754;SDS011;2902;42.130;24.732;2024-01-16T09:01:42;12.67;;;3.67;;
5754;SDS011;2902;42.130;24.732;2024-01-16T09:04:09;4.00;;;3.80;;
5754;SDS011;2902;42.130;24.732;2024-01-16T09:06:36;9.00;;;4.63;;
5754;SDS011;2902;42.130;24.732;2024-01-16T09:09:03;5.03;;;4.67;;
5754;SDS011;2902;42.130;24.732;2024-01-16T09:11:30;5.00;;;4.47;;
5754;SDS011;2902;42.130;24.732;2024-01-16T09:13:57;6.83;;;5.83;;
5754;SDS011;2902;42.130;24.732;2024-01-16T09:16:26;8.43;;;4.53;;
5754;SDS011;2902;42.130;24.732;2024-01-16T09:18:52;6.30;;;4.50;;
5754;SDS011;2902;42.130;24.732;2024-01-16T09:21:19;8.57;;;4.40;;
5754;SDS011;2902;42.130;24.732;2024-01-16T09:23:46;5.83;;;3.20;;
5754;SDS011;2902;42.130;24.732;2024-01-16T09:26:13;83.37;;;7.63;;
5754;SDS011;2902;42.130;24.732;2024-01-16T09:28:39;4.80;;;2.57;;
5754;SDS011;2902;42.130;24.732;2024-01-16T09:31:06;3.53;;;3.27;;
5754;SDS011;2902;42.130;24.732;2024-01-16T09:33:34;6.83;;;4.10;;
5754;SDS011;2902;42.130;24.732;2024-01-16T09:36:01;4.50;;;2.90;;
5754;SDS011;2902;42.130;24.732;2024-01-16T09:38:28;5.13;;;2.90;;
5754;SDS011;2902;42.130;24.732;2024-01-16T09:40:56;19.80;;;3.53;;
5754;SDS011;2902;42.130;24.732;2024-01-16T09:43:25;3.00;;;2.80;;
5754;SDS011;2902;42.130;24.732;2024-01-16T09:45:53;2.23;;;2.10;;
5754;SDS011;2902;42.130;24.732;2024-01-16T09:48:22;3.47;;;3.10;;
5754;SDS011;2902;42.130;24.732;2024-01-16T09:50:50;13.97;;;3.53;;
5754;SDS011;2902;42.130;24.732;2024-01-16T09:53:17;3.03;;;2.10;;
5754;SDS011;2902;42.130;24.732;2024-01-16T09:55:43;7.60;;;2.80;;
5754;SDS011;2902;42.130;24.732;2024-01-16T09:58:11;6.17;;;2.90;;
5754;SDS011;2902;42.130;24.732;2024-01-16T10:00:40;3.93;;;2.30;;
5754;SDS011;2902;42.130;24.732;2024-01-16T10:03:10;9.67;;;2.33;;
5754;SDS011;2902;42.130;24.732;2024-01-16T10:05:38;5.27;;;1.90;;
5754;SDS011;2902;42.130;24.732;2024-01-16T10:08:08;3.07;;;2.40;;
5754;SDS011;2902;42.130;24.732;2024-01-16T10:10:34;3.13;;;2.90;;
5754;SDS011;2902;42.130;24.732;2024-01-16T10:13:02;2.67;;;2.43;;
5754;SDS011;2902;42.130;24.732;2024-01-16T10:15:29;2.20;;;2.10;;
5754;SDS011;2902;42.130;24.732;2024-01-16T10:17:57;3.17;;;2.83;;
5754;SDS011;2902;42.130;24.732;2024-01-16T10:20:32;2.60;;;2.50;;
5754;SDS011;2902;42.130;24.732;2024-01-16T10:22:59;2.27;;;2.10;;
5754;SDS011;2902;42.130;24.732;2024-01-16T10:25:27;9.87;;;2.77;;
5754;SDS011;2902;42.130;24.732;2024-01-16T10:28:02;2.67;;;2.50;;
5754;SDS011;2902;42.130;24.732;2024-01-16T10:30:30;14.63;;;3.80;;
5754;SDS011;2902;42.130;24.732;2024-01-16T10:33:01;4.40;;;4.07;;
5754;SDS011;2902;42.130;24.732;2024-01-16T10:35:39;4.27;;;2.93;;
5754;SDS011;2902;42.130;24.732;2024-01-16T10:38:06;9.73;;;2.50;;
5754;SDS011;2902;42.130;24.732;2024-01-16T10:40:34;2.77;;;2.57;;
5754;SDS011;2902;42.130;24.732;2024-01-16T10:43:01;3.77;;;2.17;;
5754;SDS011;2902;42.130;24.732;2024-01-16T10:45:29;5.67;;;3.27;;
5754;SDS011;2902;42.130;24.732;2024-01-16T10:48:02;3.57;;;3.10;;
5754;SDS011;2902;42.130;24.732;2024-01-16T10:50:30;4.37;;;3.17;;
5754;SDS011;2902;42.130;24.732;2024-01-16T10:52:58;12.53;;;3.37;;
5754;SDS011;2902;42.130;24.732;2024-01-16T10:55:27;10.70;;;4.37;;
5754;SDS011;2902;42.130;24.732;2024-01-16T10:57:57;16.23;;;6.07;;
5754;SDS011;2902;42.130;24.732;2024-01-16T11:00:25;3.43;;;3.13;;
5754;SDS011;2902;42.130;24.732;2024-01-16T11:02:58;2.67;;;2.00;;
5754;SDS011;2902;42.130;24.732;2024-01-16T11:05:27;2.47;;;1.83;;
5754;SDS011;2902;42.130;24.732;2024-01-16T11:07:56;3.30;;;1.97;;
5754;SDS011;2902;42.130;24.732;2024-01-16T11:10:26;3.13;;;2.20;;
5754;SDS011;2902;42.130;24.732;2024-01-16T11:12:54;2.40;;;2.30;;
5754;SDS011;2902;42.130;24.732;2024-01-16T11:15:26;16.60;;;3.50;;
5754;SDS011;2902;42.130;24.732;2024-01-16T11:17:54;2.27;;;1.73;;
5754;SDS011;2902;42.130;24.732;2024-01-16T11:20:21;2.00;;;1.90;;
5754;SDS011;2902;42.130;24.732;2024-01-16T11:22:50;10.57;;;2.50;;
5754;SDS011;2902;42.130;24.732;2024-01-16T11:25:20;10.70;;;2.20;;
5754;SDS011;2902;42.130;24.732;2024-01-16T11:27:48;7.80;;;2.03;;
5754;SDS011;2902;42.130;24.732;2024-01-16T11:30:29;1.93;;;1.80;;
5754;SDS011;2902;42.130;24.732;2024-01-16T11:32:56;4.53;;;2.13;;
5754;SDS011;2902;42.130;24.732;2024-01-16T11:35:31;6.13;;;2.37;;
5754;SDS011;2902;42.130;24.732;2024-01-16T11:38:03;5.37;;;2.17;;
5754;SDS011;2902;42.130;24.732;2024-01-16T11:40:34;6.10;;;3.10;;
5754;SDS011;2902;42.130;24.732;2024-01-16T11:46:05;3.30;;;2.20;;
5754;SDS011;2902;42.130;24.732;2024-01-16T11:48:33;25.77;;;6.43;;
5754;SDS011;2902;42.130;24.732;2024-01-16T11:51:00;3.90;;;3.60;;
5754;SDS011;2902;42.130;24.732;2024-01-16T11:53:47;6.60;;;2.33;;
5754;SDS011;2902;42.130;24.732;2024-01-16T12:02:26;4.07;;;2.30;;
5754;SDS011;2902;42.130;24.732;2024-01-16T12:05:04;6.47;;;1.70;;
5754;SDS011;2902;42.130;24.732;2024-01-16T12:07:42;2.40;;;2.30;;
5754;SDS011;2902;42.130;24.732;2024-01-16T12:10:09;3.30;;;2.50;;
5754;SDS011;2902;42.130;24.732;2024-01-16T12:12:36;6.60;;;2.10;;
5754;SDS011;2902;42.130;24.732;2024-01-16T12:15:03;4.13;;;1.83;;
5754;SDS011;2902;42.130;24.732;2024-01-16T12:17:33;5.27;;;2.33;;
5754;SDS011;2902;42.130;24.732;2024-01-16T12:20:00;6.30;;;2.00;;
5754;SDS011;2902;42.130;24.732;2024-01-16T12:22:26;2.60;;;2.40;;
5754;SDS011;2902;42.130;24.732;2024-01-16T12:24:55;8.43;;;3.00;;
5754;SDS011;2902;42.130;24.732;2024-01-16T12:27:23;2.67;;;2.47;;
5754;SDS011;2902;42.130;24.732;2024-01-16T12:30:04;20.07;;;3.17;;
5754;SDS011;2902;42.130;24.732;2024-01-16T12:32:33;2.43;;;2.27;;
5754;SDS011;2902;42.130;24.732;2024-01-16T12:35:00;21.83;;;2.90;;
5754;SDS011;2902;42.130;24.732;2024-01-16T12:37:27;2.87;;;2.00;;
5754;SDS011;2902;42.130;24.732;2024-01-16T12:39:56;20.07;;;4.20;;
5754;SDS011;2902;42.130;24.732;2024-01-16T12:42:22;3.93;;;2.30;;
5754;SDS011;2902;42.130;24.732;2024-01-16T12:44:51;4.70;;;1.90;;
5754;SDS011;2902;42.130;24.732;2024-01-16T12:47:18;1.60;;;1.50;;
5754;SDS011;2902;42.130;24.732;2024-01-16T12:49:47;2.83;;;2.23;;
5754;SDS011;2902;42.130;24.732;2024-01-16T12:52:15;1.63;;;1.63;;
5754;SDS011;2902;42.130;24.732;2024-01-16T12:54:45;3.67;;;2.23;;
5754;SDS011;2902;42.130;24.732;2024-01-16T12:57:16;1.70;;;1.60;;
5754;SDS011;2902;42.130;24.732;2024-01-16T12:59:44;3.50;;;2.80;;
5754;SDS011;2902;42.130;24.732;2024-01-16T13:02:18;4.57;;;2.50;;
5754;SDS011;2902;42.130;24.732;2024-01-16T13:04:48;3.37;;;2.90;;
5754;SDS011;2902;42.130;24.732;2024-01-16T13:07:22;8.90;;;3.10;;
5754;SDS011;2902;42.130;24.732;2024-01-16T13:09:49;2.20;;;2.10;;
5754;SDS011;2902;42.130;24.732;2024-01-16T13:12:19;2.40;;;2.20;;
5754;SDS011;2902;42.130;24.732;2024-01-16T13:14:46;2.50;;;1.63;;
5754;SDS011;2902;42.130;24.732;2024-01-16T13:17:13;2.00;;;1.90;;
5754;SDS011;2902;42.130;24.732;2024-01-16T13:19:40;2.27;;;1.90;;
5754;SDS011;2902;42.130;24.732;2024-01-16T13:22:08;2.40;;;2.30;;
5754;SDS011;2902;42.130;24.732;2024-01-16T13:24:35;2.23;;;2.10;;
5754;SDS011;2902;42.130;24.732;2024-01-16T13:27:02;1.93;;;1.83;;
5754;SDS011;2902;42.130;24.732;2024-01-16T13:29:29;3.13;;;1.83;;
5754;SDS011;2902;42.130;24.732;2024-01-16T13:32:00;1.77;;;1.60;;
5754;SDS011;2902;42.130;24.732;2024-01-16T13:34:27;7.57;;;2.73;;
5754;SDS011;2902;42.130;24.732;2024-01-16T13:36:54;5.83;;;2.00;;
5754;SDS011;2902;42.130;24.732;2024-01-16T13:39:26;4.50;;;1.90;;
5754;SDS011;2902;42.130;24.732;2024-01-16T13:41:53;2.27;;;2.07;;
5754;SDS011;2902;42.130;24.732;2024-01-16T13:44:20;2.50;;;2.30;;
5754;SDS011;2902;42.130;24.732;2024-01-16T13:46:46;2.63;;;2.43;;
5754;SDS011;2902;42.130;24.732;2024-01-16T13:49:13;9.67;;;3.20;;
5754;SDS011;2902;42.130;24.732;2024-01-16T13:51:43;11.10;;;3.10;;
5754;SDS011;2902;42.130;24.732;2024-01-16T13:54:10;4.47;;;2.10;;
5754;SDS011;2902;42.130;24.732;2024-01-16T13:56:38;3.27;;;2.50;;
5754;SDS011;2902;42.130;24.732;2024-01-16T13:59:05;4.80;;;2.60;;
5754;SDS011;2902;42.130;24.732;2024-01-16T14:01:31;4.93;;;2.60;;
5754;SDS011;2902;42.130;24.732;2024-01-16T14:03:58;5.07;;;3.47;;
5754;SDS011;2902;42.130;24.732;2024-01-16T14:06:25;3.70;;;3.40;;
5754;SDS011;2902;42.130;24.732;2024-01-16T14:08:51;20.23;;;3.40;;
5754;SDS011;2902;42.130;24.732;2024-01-16T14:11:18;3.00;;;2.80;;
5754;SDS011;2902;42.130;24.732;2024-01-16T14:13:47;9.03;;;3.30;;
5754;SDS011;2902;42.130;24.732;2024-01-16T14:16:14;2.40;;;2.20;;
5754;SDS011;2902;42.130;24.732;2024-01-16T14:18:41;3.23;;;2.80;;
5754;SDS011;2902;42.130;24.732;2024-01-16T14:21:07;2.70;;;2.50;;
5754;SDS011;2902;42.130;24.732;2024-01-16T14:23:34;3.07;;;2.77;;
5754;SDS011;2902;42.130;24.732;2024-01-16T14:26:02;4.07;;;2.90;;
5754;SDS011;2902;42.130;24.732;2024-01-16T14:28:30;8.00;;;2.93;;
5754;SDS011;2902;42.130;24.732;2024-01-16T14:31:00;2.20;;;2.10;;
5754;SDS011;2902;42.130;24.732;2024-01-16T14:33:26;3.97;;;2.20;;
5754;SDS011;2902;42.130;24.732;2024-01-16T14:35:53;3.47;;;2.23;;
5754;SDS011;2902;42.130;24.732;2024-01-16T14:38:20;2.67;;;2.47;;
5754;SDS011;2902;42.130;24.732;2024-01-16T14:40:47;4.13;;;2.90;;
5754;SDS011;2902;42.130;24.732;2024-01-16T14:43:16;29.53;;;3.57;;
5754;SDS011;2902;42.130;24.732;2024-01-16T14:45:43;4.70;;;2.40;;
5754;SDS011;2902;42.130;24.732;2024-01-16T14:48:12;6.70;;;4.17;;
5754;SDS011;2902;42.130;24.732;2024-01-16T14:50:39;6.73;;;3.60;;
5754;SDS011;2902;42.130;24.732;2024-01-16T14:53:06;4.53;;;2.73;;
5754;SDS011;2902;42.130;24.732;2024-01-16T14:55:33;2.70;;;2.50;;
5754;SDS011;2902;42.130;24.732;2024-01-16T14:58:00;5.33;;;3.73;;
5754;SDS011;2902;42.130;24.732;2024-01-16T15:00:27;2.43;;;2.33;;